createdAt,value
2019-05-11T06:25:24.069Z,98024.30
2019-05-11T06:26:26.273Z,98023.19
2019-05-11T06:27:28.539Z,98019.55
2019-05-11T06:28:30.755Z,98019.17
2019-05-11T06:29:34.198Z,98023.43
2019-05-11T06:30:37.802Z,98018.45
2019-05-11T06:31:39.981Z,98032.95
2019-05-11T06:32:41.945Z,98029.59
2019-05-11T06:33:43.581Z,98029.69
2019-05-11T06:34:45.954Z,98036.73
2019-05-11T06:35:48.266Z,98034.84
2019-05-11T06:36:50.316Z,98033.97
2019-05-11T06:37:53.343Z,98030.59
2019-05-11T06:38:56.937Z,98039.81
2019-05-11T06:39:59.393Z,98036.44
2019-05-11T06:41:01.541Z,98030.05
2019-05-11T06:42:03.544Z,98037.95
2019-05-11T06:43:06.608Z,98042.19
2019-05-11T06:44:08.363Z,98036.06
2019-05-11T06:45:10.856Z,98038.94
2019-05-11T06:46:12.891Z,98035.89
2019-05-11T06:47:14.539Z,98038.69
2019-05-11T06:48:16.236Z,98034.36
2019-05-11T06:49:18.044Z,98031.62
2019-05-11T06:50:21.244Z,98034.56
2019-05-11T06:51:23.066Z,98033.66
2019-05-11T06:52:24.751Z,98036.63
2019-05-11T06:53:26.696Z,98039.73
2019-05-11T06:54:28.298Z,98035.20
2019-05-11T06:55:30.195Z,98036.35
2019-05-11T06:56:32.493Z,98036.18
2019-05-11T06:57:34.207Z,98040.26
2019-05-11T06:58:35.868Z,98039.59
2019-05-11T06:59:37.523Z,98040.40
2019-05-11T07:00:39.438Z,98034.40
2019-05-11T07:01:41.762Z,98032.83
2019-05-11T07:02:43.450Z,98035.45
2019-05-11T07:03:45.157Z,98036.70
2019-05-11T07:04:47.473Z,98034.64
2019-05-11T07:05:49.395Z,98033.77
2019-05-11T07:06:51.180Z,98030.38
2019-05-11T07:07:53.206Z,98032.64
2019-05-11T07:08:55.464Z,98039.23
2019-05-11T07:09:58.107Z,98035.17
2019-05-11T07:10:59.867Z,98037.70
2019-05-11T07:12:02.129Z,98030.38
2019-05-11T07:13:04.583Z,98032.41
2019-05-11T07:14:19.958Z,98037.09
2019-05-11T07:15:12.094Z,98036.26
2019-05-11T07:16:14.388Z,98037.31
2019-05-11T07:17:16.693Z,98035.36
2019-05-11T07:18:18.863Z,98036.83
2019-05-11T07:19:21.053Z,98034.79
2019-05-11T07:20:23.229Z,98033.77
2019-05-11T07:21:25.192Z,98035.23
2019-05-11T07:22:26.895Z,98038.14
2019-05-11T07:23:29.115Z,98036.06
2019-05-11T07:24:32.524Z,98035.00
2019-05-11T07:25:35.058Z,98036.06
2019-05-11T07:26:38.035Z,98042.13
2019-05-11T07:27:40.347Z,98036.45
2019-05-11T07:28:42.393Z,98040.74
2019-05-11T07:29:44.219Z,98035.43
2019-05-11T07:30:46.488Z,98033.48
2019-05-11T07:31:49.539Z,98043.80
2019-05-11T07:32:51.585Z,98038.09
2019-05-11T07:33:53.630Z,98030.82
2019-05-11T07:34:57.613Z,98036.72
2019-05-11T07:35:58.863Z,98048.45
2019-05-11T07:37:00.703Z,98041.81
2019-05-11T07:38:02.933Z,98042.20
2019-05-11T07:39:08.344Z,98040.81
2019-05-11T07:40:11.023Z,98047.45
2019-05-11T07:41:12.745Z,98040.44
2019-05-11T07:42:14.605Z,98042.66
2019-05-11T07:43:18.716Z,98040.19
2019-05-11T07:44:33.886Z,98036.27
2019-05-11T07:45:23.536Z,98033.39
2019-05-11T07:46:25.394Z,98034.84
2019-05-11T07:47:27.822Z,98038.03
2019-05-11T07:48:29.810Z,98040.25
2019-05-11T07:49:31.539Z,98033.92
2019-05-11T07:50:33.154Z,98037.89
2019-05-11T07:51:39.062Z,98038.54
2019-05-11T07:52:40.858Z,98034.28
2019-05-11T07:53:42.863Z,98037.47
2019-05-11T07:54:44.704Z,98032.02
2019-05-11T07:55:48.511Z,98035.94
2019-05-11T07:56:50.676Z,98033.09
2019-05-11T07:57:52.699Z,98026.89
2019-05-11T07:58:54.592Z,98036.50
2019-05-11T07:59:57.978Z,98039.59
2019-05-11T08:01:01.529Z,98036.88
2019-05-11T08:02:03.826Z,98035.86
2019-05-11T08:03:05.885Z,98029.41
2019-05-11T08:04:10.063Z,98038.16
2019-05-11T08:05:12.179Z,98029.66
2019-05-11T08:06:14.450Z,98029.66
2019-05-11T08:07:18.093Z,98037.63
2019-05-11T08:08:20.372Z,98034.66
2019-05-11T08:09:22.469Z,98026.69
2019-05-11T08:10:24.644Z,98037.32
2019-05-11T08:11:30.793Z,98031.38
2019-05-11T08:12:31.095Z,98037.20
2019-05-11T08:13:33.191Z,98035.28
2019-05-11T08:14:51.998Z,98030.21
2019-05-11T08:15:39.624Z,98029.28
2019-05-11T08:16:41.784Z,98030.68
2019-05-11T08:17:43.399Z,98028.98
2019-05-11T08:18:48.184Z,98033.71
2019-05-11T08:19:49.827Z,98028.08
2019-05-11T08:20:51.810Z,98028.52
2019-05-11T08:21:53.491Z,98028.27
2019-05-11T08:22:55.426Z,98024.28
2019-05-11T08:23:58.737Z,98025.20
2019-05-11T08:25:00.827Z,98021.86
2019-05-11T08:26:02.608Z,98021.77
2019-05-11T08:27:08.230Z,98024.84
2019-05-11T08:28:12.157Z,98024.06
2019-05-11T08:29:18.430Z,98032.97
2019-05-11T08:30:20.647Z,98025.63
2019-05-11T08:31:22.527Z,98030.53
2019-05-11T08:32:24.691Z,98029.08
2019-05-11T08:33:28.381Z,98029.63
2019-05-11T08:34:31.245Z,98031.09
2019-05-11T08:35:34.542Z,98029.38
2019-05-11T08:36:37.805Z,98027.87
2019-05-11T08:37:40.350Z,98035.97
2019-05-11T08:38:42.519Z,98028.22
2019-05-11T08:39:44.782Z,98035.08
2019-05-11T08:40:48.539Z,98035.73
2019-05-11T08:41:50.570Z,98033.98
2019-05-11T08:42:52.391Z,98025.55
2019-05-11T08:43:55.503Z,98029.97
2019-05-11T08:45:15.292Z,98028.22
2019-05-11T08:46:02.871Z,98031.76
2019-05-11T08:47:04.689Z,98022.17
2019-05-11T08:48:08.153Z,98026.74
2019-05-11T08:49:10.375Z,98022.25
2019-05-11T08:50:15.243Z,98020.27
2019-05-11T08:51:18.629Z,98020.20
2019-05-11T08:52:20.508Z,98022.49
2019-05-11T08:53:22.520Z,98023.33
2019-05-11T08:54:24.686Z,98020.78
2019-05-11T08:55:28.957Z,98028.08
2019-05-11T08:56:30.816Z,98029.98
2019-05-11T08:57:32.732Z,98028.66
2019-05-11T08:58:34.930Z,98032.45
2019-05-11T08:59:38.133Z,98028.91
2019-05-11T09:00:41.008Z,98030.55
2019-05-11T09:01:42.747Z,98028.23
2019-05-11T09:02:46.863Z,98030.36
2019-05-11T09:03:48.137Z,98028.69
2019-05-11T09:04:49.912Z,98030.02
2019-05-11T09:05:53.181Z,98027.35
2019-05-11T09:06:54.908Z,98026.74
2019-05-11T09:07:57.742Z,98026.06
2019-05-11T09:08:59.884Z,98030.78
2019-05-11T09:10:01.834Z,98023.21
2019-05-11T09:11:04.996Z,98023.52
2019-05-11T09:12:10.133Z,98026.03
2019-05-11T09:13:18.582Z,98028.35
2019-05-11T09:14:28.160Z,98019.79
2019-05-11T09:15:39.799Z,98015.69
2019-05-11T09:16:43.137Z,98021.23
2019-05-11T09:17:51.309Z,98016.22
2019-05-11T09:18:58.241Z,98020.02
2019-05-11T09:20:08.685Z,98020.47
2019-05-11T09:21:18.639Z,98016.05
2019-05-11T09:22:24.511Z,98016.20
2019-05-11T09:23:37.380Z,98019.19
2019-05-11T09:24:39.555Z,98017.66
2019-05-11T09:25:47.794Z,98020.94
2019-05-11T09:26:55.702Z,98016.55
2019-05-11T09:28:02.521Z,98016.47
2019-05-11T09:29:09.635Z,98017.10
2019-05-11T09:30:18.491Z,98012.08
2019-05-11T09:31:27.763Z,98009.82
2019-05-11T09:32:34.430Z,98013.91
2019-05-11T09:33:41.598Z,98008.55
2019-05-11T09:34:49.096Z,98009.25
2019-05-11T09:35:58.147Z,98009.67
2019-05-11T09:37:07.947Z,98012.64
2019-05-11T09:38:15.023Z,98014.78
2019-05-11T09:39:21.607Z,98017.52
2019-05-11T09:40:28.516Z,98023.91
2019-05-11T09:41:38.326Z,98021.52
2019-05-11T09:42:45.309Z,98021.44
2019-05-11T09:43:53.726Z,98025.55
2019-05-11T09:45:00.847Z,98021.66
2019-05-11T09:46:08.337Z,98027.59
2019-05-11T09:47:15.487Z,98026.73
2019-05-11T09:48:22.090Z,98025.92
2019-05-11T09:49:43.411Z,98025.31
2019-05-11T09:50:38.819Z,98020.18
2019-05-11T09:51:48.249Z,98025.63
2019-05-11T09:52:58.065Z,98015.26
2019-05-11T09:54:07.773Z,98019.26
2019-05-11T09:55:14.026Z,98028.88
2019-05-11T09:56:20.529Z,98028.43
2019-05-11T09:57:27.700Z,98022.88
2019-05-11T09:58:35.331Z,98033.13
2019-05-11T09:59:42.121Z,98028.82
2019-05-11T10:00:50.442Z,98033.32
2019-05-11T10:01:58.905Z,98032.41
2019-05-11T10:03:08.050Z,98030.55
2019-05-11T10:04:13.824Z,98032.09
2019-05-11T10:05:20.752Z,98028.91
2019-05-11T10:06:30.444Z,98033.42
2019-05-11T10:07:38.662Z,98035.12
2019-05-11T10:08:48.707Z,98031.77
2019-05-11T10:09:55.770Z,98028.39
2019-05-11T10:11:01.979Z,98029.51
2019-05-11T10:12:09.241Z,98028.67
2019-05-11T10:13:18.494Z,98031.42
2019-05-11T10:14:24.560Z,98032.39
2019-05-11T10:15:32.923Z,98031.98
2019-05-11T10:16:40.257Z,98034.11
2019-05-11T10:17:48.314Z,98030.01
2019-05-11T10:18:56.044Z,98035.51
2019-05-11T10:20:03.852Z,98030.87
2019-05-11T10:21:12.846Z,98036.06
2019-05-11T10:22:19.379Z,98036.11
2019-05-11T10:23:27.883Z,98035.25
2019-05-11T10:24:38.322Z,98040.86
2019-05-11T10:25:44.459Z,98042.44
2019-05-11T10:26:51.449Z,98034.66
2019-05-11T10:27:59.879Z,98036.59
2019-05-11T10:29:07.932Z,98038.56
2019-05-11T10:30:15.597Z,98045.13
2019-05-11T10:31:22.140Z,98045.73
2019-05-11T10:32:29.269Z,98046.05
2019-05-11T10:33:38.244Z,98049.64
2019-05-11T10:34:44.863Z,98043.69
2019-05-11T10:35:51.817Z,98042.36
2019-05-11T10:36:58.754Z,98043.81
2019-05-11T10:38:08.932Z,98051.48
2019-05-11T10:39:15.849Z,98049.03
2019-05-11T10:40:22.755Z,98047.38
2019-05-11T10:41:29.294Z,98046.97
2019-05-11T10:42:37.717Z,98045.95
2019-05-11T10:43:44.087Z,98036.82
2019-05-11T10:44:51.120Z,98039.89
2019-05-11T10:45:58.866Z,98044.13
2019-05-11T10:47:08.081Z,98038.50
2019-05-11T10:48:14.700Z,98043.84
2019-05-11T10:49:21.896Z,98042.80
2019-05-11T10:50:28.918Z,98042.07
2019-05-11T10:51:38.109Z,98048.94
2019-05-11T10:52:48.219Z,98039.20
2019-05-11T10:53:54.558Z,98040.73
2019-05-11T10:55:02.852Z,98045.64
2019-05-11T10:56:10.354Z,98042.04
2019-05-11T10:57:18.926Z,98038.53
2019-05-11T10:58:28.511Z,98041.00
2019-05-11T10:59:38.796Z,98041.10
2019-05-11T11:00:45.355Z,98044.38
2019-05-11T11:01:52.209Z,98048.61
2019-05-11T11:03:00.254Z,98045.30
2019-05-11T11:04:08.004Z,98044.06
2019-05-11T11:05:14.806Z,98046.93
2019-05-11T11:06:21.273Z,98047.03
2019-05-11T11:07:28.915Z,98047.73
2019-05-11T11:08:38.306Z,98045.05
2019-05-11T11:09:44.915Z,98046.38
2019-05-11T11:10:52.075Z,98044.11
2019-05-11T11:11:58.873Z,98044.03
2019-05-11T11:13:08.141Z,98046.16
2019-05-11T11:14:17.907Z,98042.34
2019-05-11T11:15:24.454Z,98046.45
2019-05-11T11:16:38.841Z,98040.37
2019-05-11T11:17:40.337Z,98044.70
2019-05-11T11:18:48.593Z,98041.30
2019-05-11T11:19:58.062Z,98039.22
2019-05-11T11:21:04.567Z,98035.60
2019-05-11T11:22:35.364Z,98039.11
2019-05-11T11:23:20.267Z,98041.58
2019-05-11T11:24:30.159Z,98038.55
2019-05-11T11:25:37.599Z,98029.76
2019-05-11T11:26:44.907Z,98031.30
2019-05-11T11:27:51.653Z,98034.08
2019-05-11T11:28:58.863Z,98039.96
2019-05-11T11:30:09.290Z,98036.75
2019-05-11T11:31:19.470Z,98035.42
2019-05-11T11:32:27.875Z,98036.55
2019-05-11T11:33:38.178Z,98037.17
2019-05-11T11:34:44.750Z,98034.59
2019-05-11T11:35:51.940Z,98034.06
2019-05-11T11:36:58.729Z,98038.76
2019-05-11T11:38:05.837Z,98029.76
2019-05-11T11:39:12.515Z,98035.39
2019-05-11T11:40:19.506Z,98035.79
2019-05-11T11:41:25.876Z,98039.39
2019-05-11T11:42:32.268Z,98039.57
2019-05-11T11:43:38.959Z,98035.03
2019-05-11T11:44:48.243Z,98035.21
2019-05-11T11:45:54.720Z,98040.26
2019-05-11T11:47:01.820Z,98033.11
2019-05-11T11:48:09.679Z,98035.99
2019-05-11T11:49:18.807Z,98043.23
2019-05-11T11:50:25.175Z,98042.42
2019-05-11T11:51:32.218Z,98040.37
2019-05-11T11:52:39.041Z,98037.20
2019-05-11T11:53:48.007Z,98037.74
2019-05-11T11:54:54.706Z,98030.83
2019-05-11T11:56:01.839Z,98037.95
2019-05-11T11:57:08.665Z,98031.45
2019-05-11T11:58:15.280Z,98030.46
2019-05-11T11:59:21.833Z,98034.13
2019-05-11T12:00:29.113Z,98036.30
2019-05-11T12:01:38.209Z,98033.63
2019-05-11T12:02:48.572Z,98035.80
2019-05-11T12:03:55.264Z,98026.74
2019-05-11T12:05:02.314Z,98026.74
2019-05-11T12:06:10.283Z,98033.12
2019-05-11T12:07:18.465Z,98028.38
2019-05-11T12:08:28.040Z,98030.14
2019-05-11T12:09:34.005Z,98024.30
2019-05-11T12:10:42.683Z,98032.30
2019-05-11T12:11:49.396Z,98032.91
2019-05-11T12:12:58.095Z,98034.63
2019-05-11T12:14:05.847Z,98033.78
2019-05-11T12:15:12.754Z,98026.25
2019-05-11T12:16:23.019Z,98023.67
2019-05-11T12:17:29.643Z,98018.81
2019-05-11T12:18:38.086Z,98023.53
2019-05-11T12:19:45.126Z,98023.23
2019-05-11T12:20:51.997Z,98022.29
2019-05-11T12:22:00.465Z,98024.52
2019-05-11T12:23:08.746Z,98027.48
2019-05-11T12:24:15.799Z,98026.16
2019-05-11T12:25:22.434Z,98031.68
2019-05-11T12:26:28.665Z,98022.62
2019-05-11T12:27:35.434Z,98026.42
2019-05-11T12:28:42.518Z,98032.91
2019-05-11T12:29:50.510Z,98029.19
2019-05-11T12:30:58.562Z,98026.72
2019-05-11T12:32:08.191Z,98029.07
2019-05-11T12:33:15.232Z,98025.66
2019-05-11T12:34:23.004Z,98032.63
2019-05-11T12:35:29.520Z,98030.29
2019-05-11T12:36:38.741Z,98025.95
2019-05-11T12:37:48.265Z,98024.61
2019-05-11T12:38:54.819Z,98021.64
2019-05-11T12:40:01.676Z,98022.86
2019-05-11T12:41:08.902Z,98028.20
2019-05-11T12:42:17.945Z,98023.98
2019-05-11T12:43:24.528Z,98023.78
2019-05-11T12:44:31.283Z,98021.41
2019-05-11T12:45:38.496Z,98019.03
2019-05-11T12:46:45.512Z,98019.91
2019-05-11T12:47:53.093Z,98017.98
2019-05-11T12:49:00.062Z,98020.75
2019-05-11T12:50:09.678Z,98023.84
2019-05-11T12:51:18.860Z,98022.09
2019-05-11T12:52:28.000Z,98023.18
2019-05-11T12:53:38.466Z,98023.18
2019-05-11T12:54:47.753Z,98016.28
2019-05-11T12:55:55.600Z,98019.58
2019-05-11T12:57:02.649Z,98017.91
2019-05-11T12:58:09.997Z,98015.57
2019-05-11T12:59:18.803Z,98009.98
2019-05-11T13:00:30.435Z,98011.94
2019-05-11T13:01:34.351Z,98013.66
2019-05-11T13:02:42.490Z,98016.03
2019-05-11T13:03:49.683Z,98010.98
2019-05-11T13:06:02.385Z,98013.66
2019-05-11T13:07:10.761Z,98007.30
2019-05-11T13:08:18.402Z,98004.62
2019-05-11T13:09:26.157Z,98009.97
2019-05-11T13:10:33.711Z,98011.95
2019-05-11T13:11:40.561Z,98014.63
2019-05-11T13:12:49.367Z,98011.69
2019-05-11T13:13:58.371Z,98010.09
2019-05-11T13:15:08.333Z,98012.55
2019-05-11T13:16:18.497Z,98013.27
2019-05-11T13:17:36.848Z,98005.66
2019-05-11T13:18:33.581Z,98005.88
2019-05-11T13:19:40.783Z,98009.34
2019-05-11T13:20:48.476Z,98012.85
2019-05-11T13:21:55.550Z,98007.03
2019-05-11T13:23:02.142Z,98004.77
2019-05-11T13:24:08.858Z,98006.26
2019-05-11T13:25:17.726Z,98008.59
2019-05-11T13:26:24.342Z,98009.11
2019-05-11T13:27:31.944Z,98011.03
2019-05-11T13:28:40.732Z,98006.93
2019-05-11T13:29:49.541Z,98010.22
2019-05-11T13:30:57.934Z,98014.32
2019-05-11T13:32:04.852Z,98015.95
2019-05-11T13:33:11.578Z,98011.23
2019-05-11T13:34:19.388Z,98016.67
2019-05-11T13:35:28.307Z,98011.03
2019-05-11T13:36:34.530Z,98007.11
2019-05-11T13:37:40.957Z,98010.49
2019-05-11T13:38:48.199Z,98008.45
2019-05-11T13:39:57.817Z,98007.70
2019-05-11T13:41:04.072Z,98009.55
2019-05-11T13:42:10.766Z,98011.53
2019-05-11T13:43:18.813Z,97998.91
2019-05-11T13:44:28.003Z,98008.12
2019-05-11T13:45:38.755Z,98008.00
2019-05-11T13:46:45.210Z,98002.25
2019-05-11T13:47:55.848Z,97999.96
2019-05-11T13:49:00.726Z,98003.52
2019-05-11T13:50:08.934Z,97999.90
2019-05-11T13:51:18.358Z,98000.82
2019-05-11T13:52:28.532Z,98000.61
2019-05-11T13:53:34.510Z,97995.66
2019-05-11T13:54:40.820Z,97993.87
2019-05-11T13:55:48.163Z,98000.43
2019-05-11T13:56:54.767Z,97994.38
2019-05-11T13:58:01.563Z,98000.81
2019-05-11T13:59:10.635Z,97992.88
2019-05-11T14:00:19.332Z,98002.45
2019-05-11T14:01:28.238Z,97995.77
2019-05-11T14:02:35.266Z,97997.05
2019-05-11T14:03:41.755Z,98000.88
2019-05-11T14:04:49.873Z,97991.47
2019-05-11T14:05:58.246Z,97994.83
2019-05-11T14:07:05.114Z,98002.93
2019-05-11T14:08:11.764Z,97995.69
2019-05-11T14:09:18.738Z,97996.86
2019-05-11T14:10:25.341Z,97996.91
2019-05-11T14:11:32.437Z,98002.20
2019-05-11T14:12:39.171Z,97996.66
2019-05-11T14:13:48.034Z,97994.52
2019-05-11T14:14:54.657Z,97997.51
2019-05-11T14:16:01.869Z,97999.98
2019-05-11T14:17:08.533Z,97995.67
2019-05-11T14:18:17.770Z,98001.11
2019-05-11T14:19:24.786Z,98003.15
2019-05-11T14:20:31.578Z,98003.45
2019-05-11T14:21:38.601Z,98001.41
2019-05-11T14:22:47.792Z,98002.30
2019-05-11T14:23:54.300Z,97997.52
2019-05-11T14:25:01.199Z,97997.11
2019-05-11T14:26:09.190Z,97998.77
2019-05-11T14:27:17.799Z,97997.25
2019-05-11T14:28:24.674Z,97993.31
2019-05-11T14:29:32.896Z,97995.70
2019-05-11T14:30:39.981Z,97993.01
2019-05-11T14:31:49.815Z,97996.00
2019-05-11T14:32:58.116Z,98001.70
2019-05-11T14:34:05.329Z,98004.37
2019-05-11T14:35:12.469Z,98002.11
2019-05-11T14:36:20.880Z,98001.11
2019-05-11T14:37:28.553Z,98009.42
2019-05-11T14:38:35.050Z,98011.05
2019-05-11T14:39:41.276Z,98004.02
2019-05-11T14:40:48.033Z,98004.46
2019-05-11T14:41:54.648Z,98010.45
2019-05-11T14:43:01.776Z,98006.01
2019-05-11T14:44:09.053Z,98009.64
2019-05-11T14:45:18.525Z,98011.91
2019-05-11T14:46:27.901Z,98007.59
2019-05-11T14:47:34.907Z,98008.84
2019-05-11T14:48:41.391Z,98009.21
2019-05-11T14:49:49.897Z,98009.36
2019-05-11T14:50:59.091Z,98007.94
2019-05-11T14:52:05.445Z,98004.17
2019-05-11T14:53:12.362Z,97999.92
2019-05-11T14:54:20.233Z,98002.18
2019-05-11T14:55:29.112Z,98003.87
2019-05-11T14:56:38.005Z,98010.27
2019-05-11T14:57:45.522Z,98010.27
2019-05-11T14:58:52.001Z,98011.37
2019-05-11T14:59:58.712Z,98017.25
2019-05-11T15:01:05.424Z,98020.81
2019-05-11T15:02:13.546Z,98016.70
2019-05-11T15:03:22.156Z,98014.50
2019-05-11T15:04:29.519Z,98021.96
2019-05-11T15:05:37.945Z,98012.70
2019-05-11T15:06:45.078Z,98023.36
2019-05-11T15:07:52.564Z,98016.86
2019-05-11T15:09:00.169Z,98016.74
2019-05-11T15:10:09.199Z,98021.14
2019-05-11T15:11:18.848Z,98016.77
2019-05-11T15:12:25.815Z,98027.05
2019-05-11T15:13:33.125Z,98021.91
2019-05-11T15:14:39.693Z,98022.30
2019-05-11T15:15:48.658Z,98029.48
2019-05-11T15:16:54.809Z,98025.56
2019-05-11T15:18:01.847Z,98026.77
2019-05-11T15:19:08.323Z,98029.53
2019-05-11T15:20:17.739Z,98024.27
2019-05-11T15:21:24.136Z,98035.86
2019-05-11T15:22:31.729Z,98029.50
2019-05-11T15:23:38.678Z,98028.55
2019-05-11T15:24:45.703Z,98026.16
2019-05-11T15:25:52.555Z,98029.22
2019-05-11T15:26:59.486Z,98033.02
2019-05-11T15:28:08.679Z,98032.27
2019-05-11T15:29:15.018Z,98035.57
2019-05-11T15:30:22.509Z,98035.95
2019-05-11T15:31:29.338Z,98032.53
2019-05-11T15:32:38.051Z,98036.16
2019-05-11T15:33:44.998Z,98036.91
2019-05-11T15:34:51.804Z,98035.57
2019-05-11T15:35:59.099Z,98029.17
2019-05-11T15:37:08.054Z,98030.52
2019-05-11T15:38:17.886Z,98036.91
2019-05-11T15:39:24.952Z,98030.22
2019-05-11T15:40:32.794Z,98030.52
2019-05-11T15:41:39.660Z,98035.87
2019-05-11T15:42:48.834Z,98035.12
2019-05-11T15:43:55.416Z,98032.23
2019-05-11T15:45:02.369Z,98040.55
2019-05-11T15:46:09.368Z,98036.63
2019-05-11T15:47:16.290Z,98040.94
2019-05-11T15:48:22.881Z,98040.19
2019-05-11T15:49:31.008Z,98035.96
2019-05-11T15:50:40.305Z,98040.59
2019-05-11T15:51:48.934Z,98043.36
2019-05-11T15:52:54.691Z,98032.95
2019-05-11T15:54:01.369Z,98040.77
2019-05-11T15:55:11.066Z,98043.20
2019-05-11T15:56:19.044Z,98042.48
2019-05-11T15:57:27.965Z,98032.58
2019-05-11T15:58:34.159Z,98033.99
2019-05-11T15:59:40.606Z,98039.97
2019-05-11T16:00:49.295Z,98040.47
2019-05-11T16:01:58.018Z,98038.38
2019-05-11T16:03:04.835Z,98037.88
2019-05-11T16:04:11.245Z,98033.95
2019-05-11T16:05:18.586Z,98037.42
2019-05-11T16:06:25.697Z,98037.03
2019-05-11T16:07:32.283Z,98035.69
2019-05-11T16:08:38.725Z,98032.72
2019-05-11T16:09:45.763Z,98036.52
2019-05-11T16:10:52.337Z,98042.76
2019-05-11T16:12:00.355Z,98040.63
2019-05-11T16:13:09.229Z,98036.36
2019-05-11T16:14:16.051Z,98033.18
2019-05-11T16:15:22.770Z,98039.03
2019-05-11T16:16:29.193Z,98042.84
2019-05-11T16:17:40.134Z,98032.64
2019-05-11T16:18:44.010Z,98032.42
2019-05-11T16:19:51.021Z,98037.06
2019-05-11T16:20:58.337Z,98036.52
2019-05-11T16:22:04.952Z,98034.89
2019-05-11T16:23:11.780Z,98037.19
2019-05-11T16:24:18.649Z,98032.13
2019-05-11T16:25:27.533Z,98033.34
2019-05-11T16:26:34.266Z,98029.32
2019-05-11T16:27:41.128Z,98034.06
2019-05-11T16:28:48.386Z,98032.34
2019-05-11T16:29:55.299Z,98030.92
2019-05-11T16:31:02.362Z,98034.73
2019-05-11T16:32:09.320Z,98028.58
2019-05-11T16:33:18.069Z,98027.53
2019-05-11T16:34:27.768Z,98031.38
2019-05-11T16:35:33.992Z,98033.60
2019-05-11T16:36:41.024Z,98035.56
2019-05-11T16:37:48.757Z,98035.39
2019-05-11T16:38:55.656Z,98033.63
2019-05-11T16:40:02.760Z,98031.48
2019-05-11T16:41:10.532Z,98032.02
2019-05-11T16:42:17.462Z,98034.17
2019-05-11T16:43:24.387Z,98030.90
2019-05-11T16:44:31.381Z,98033.52
2019-05-11T16:45:38.224Z,98034.71
2019-05-11T16:46:48.058Z,98039.06
2019-05-11T16:47:54.831Z,98039.72
2019-05-11T16:49:02.042Z,98041.42
2019-05-11T16:50:09.769Z,98043.20
2019-05-11T16:51:17.760Z,98043.14
2019-05-11T16:52:24.639Z,98043.36
2019-05-11T16:53:31.256Z,98049.77
2019-05-11T16:54:38.835Z,98049.44
2019-05-11T16:55:45.402Z,98040.89
2019-05-11T16:56:52.569Z,98046.76
2019-05-11T16:57:59.927Z,98052.55
2019-05-11T16:59:08.206Z,98053.84
2019-05-11T17:00:15.432Z,98048.66
2019-05-11T17:01:21.942Z,98054.45
2019-05-11T17:02:30.475Z,98052.48
2019-05-11T17:03:38.438Z,98057.41
2019-05-11T17:04:45.038Z,98053.22
2019-05-11T17:05:51.465Z,98060.06
2019-05-11T17:06:57.926Z,98063.84
2019-05-11T17:08:04.447Z,98064.16
2019-05-11T17:09:10.993Z,98066.59
2019-05-11T17:10:18.290Z,98060.27
2019-05-11T17:11:24.600Z,98065.92
2019-05-11T17:12:31.020Z,98064.80
2019-05-11T17:13:37.938Z,98072.09
2019-05-11T17:14:58.430Z,98063.23
2019-05-11T17:16:05.057Z,98071.64
2019-05-11T17:17:11.498Z,98068.95
2019-05-11T17:18:18.502Z,98073.91
2019-05-11T17:19:39.475Z,98071.89
2019-05-11T17:20:32.997Z,98075.11
2019-05-11T17:21:39.719Z,98077.80
2019-05-11T17:22:47.978Z,98076.55
2019-05-11T17:23:54.922Z,98078.10
2019-05-11T17:25:01.149Z,98075.06
2019-05-11T17:26:08.765Z,98083.30
2019-05-11T17:27:16.891Z,98080.07
2019-05-11T17:28:24.048Z,98085.22
2019-05-11T17:29:30.505Z,98081.98
2019-05-11T17:30:38.652Z,98086.34
2019-05-11T17:31:45.557Z,98090.04
2019-05-11T17:32:52.652Z,98090.52
2019-05-11T17:33:59.783Z,98088.81
2019-05-11T17:35:08.915Z,98088.45
2019-05-11T17:36:18.717Z,98093.35
2019-05-11T17:37:25.702Z,98093.57
2019-05-11T17:38:33.734Z,98092.95
2019-05-11T17:39:40.524Z,98093.65
2019-05-11T17:40:48.299Z,98093.36
2019-05-11T17:41:55.329Z,98097.53
2019-05-11T17:43:02.341Z,98095.02
2019-05-11T17:44:09.255Z,98094.12
2019-05-11T17:45:15.893Z,98099.70
2019-05-11T17:46:22.375Z,98096.58
2019-05-11T17:47:28.818Z,98102.16
2019-05-11T17:48:35.870Z,98102.92
2019-05-11T17:49:56.404Z,98102.70
2019-05-11T17:50:51.497Z,98107.84
2019-05-11T17:51:58.159Z,98102.98
2019-05-11T17:53:05.188Z,98109.33
2019-05-11T17:54:11.627Z,98105.45
2019-05-11T17:55:18.735Z,98108.59
2019-05-11T17:56:27.840Z,98105.16
2019-05-11T17:57:34.403Z,98112.91
2019-05-11T17:58:41.755Z,98113.05
2019-05-11T17:59:48.712Z,98113.80
2019-05-11T18:00:58.602Z,98116.91
2019-05-11T18:02:04.528Z,98119.01
2019-05-11T18:03:11.689Z,98114.62
2019-05-11T18:04:18.838Z,98114.00
2019-05-11T18:05:25.781Z,98113.63
2019-05-11T18:06:32.761Z,98118.19
2019-05-11T18:07:40.695Z,98119.74
2019-05-11T18:08:48.277Z,98112.75
2019-05-11T18:09:55.136Z,98117.06
2019-05-11T18:11:02.271Z,98115.08
2019-05-11T18:12:09.960Z,98120.44
2019-05-11T18:13:18.758Z,98121.78
2019-05-11T18:14:27.956Z,98117.17
2019-05-11T18:15:33.788Z,98126.84
2019-05-11T18:16:40.837Z,98124.08
2019-05-11T18:17:48.608Z,98122.98
2019-05-11T18:18:58.677Z,98123.71
2019-05-11T18:20:16.763Z,98124.47
2019-05-11T18:21:15.610Z,98126.23
2019-05-11T18:22:22.694Z,98123.55
2019-05-11T18:23:29.595Z,98126.69
2019-05-11T18:24:40.996Z,98132.48
2019-05-11T18:25:48.054Z,98127.33
2019-05-11T18:26:55.263Z,98130.34
2019-05-11T18:28:02.714Z,98137.75
2019-05-11T18:29:09.426Z,98142.73
2019-05-11T18:30:16.258Z,98141.85
2019-05-11T18:31:22.993Z,98141.53
2019-05-11T18:32:29.320Z,98143.11
2019-05-11T18:33:38.051Z,98145.70
2019-05-11T18:34:44.298Z,98143.03
2019-05-11T18:35:51.918Z,98148.30
2019-05-11T18:36:58.614Z,98147.47
2019-05-11T18:38:08.588Z,98148.52
2019-05-11T18:39:15.518Z,98147.59
2019-05-11T18:40:22.396Z,98147.01
2019-05-11T18:41:29.222Z,98152.66
2019-05-11T18:42:38.355Z,98143.73
2019-05-11T18:43:44.711Z,98146.92
2019-05-11T18:44:51.772Z,98153.11
2019-05-11T18:45:58.462Z,98150.86
2019-05-11T18:47:08.681Z,98151.90
2019-05-11T18:48:14.397Z,98154.88
2019-05-11T18:49:20.891Z,98155.91
2019-05-11T18:50:31.350Z,98154.28
2019-05-11T18:51:37.629Z,98153.75
2019-05-11T18:52:44.573Z,98160.23
2019-05-11T18:53:51.255Z,98156.75
2019-05-11T18:54:57.882Z,98156.42
2019-05-11T18:56:04.675Z,98156.95
2019-05-11T18:57:11.189Z,98160.14
2019-05-11T18:58:18.672Z,98157.77
2019-05-11T18:59:25.704Z,98159.84
2019-05-11T19:00:32.639Z,98164.99
2019-05-11T19:01:39.521Z,98162.73
2019-05-11T19:02:49.041Z,98161.69
2019-05-11T19:03:55.296Z,98165.41
2019-05-11T19:05:02.531Z,98166.45
2019-05-11T19:06:09.285Z,98164.83
2019-05-11T19:07:17.895Z,98172.86
2019-05-11T19:08:24.727Z,98174.20
2019-05-11T19:09:31.459Z,98170.92
2019-05-11T19:10:38.540Z,98171.44
2019-05-11T19:11:48.634Z,98174.94
2019-05-11T19:12:54.099Z,98175.74
2019-05-11T19:14:00.945Z,98176.28
2019-05-11T19:15:09.402Z,98173.90
2019-05-11T19:16:18.641Z,98179.25
2019-05-11T19:17:24.748Z,98175.45
2019-05-11T19:18:31.203Z,98173.81
2019-05-11T19:19:39.011Z,98177.83
2019-05-11T19:20:49.219Z,98176.49
2019-05-11T19:21:54.747Z,98177.29
2019-05-11T19:23:02.026Z,98185.66
2019-05-11T19:24:09.437Z,98171.64
2019-05-11T19:25:18.271Z,98182.14
2019-05-11T19:26:25.251Z,98175.16